createdAt,value
2019-03-24T00:04:03.627Z,100125.86
2019-03-24T00:09:08.244Z,100116.92
2019-03-24T00:14:12.174Z,100117.36
2019-03-24T00:19:15.920Z,100110.55
2019-03-24T00:24:19.790Z,100112.44
2019-03-24T00:29:23.779Z,100104.63
2019-03-24T00:34:27.660Z,100098.03
2019-03-24T00:39:31.622Z,100086.58
2019-03-24T00:44:35.819Z,100084.95
2019-03-24T00:49:39.877Z,100082.89
2019-03-24T00:54:43.734Z,100090.06
2019-03-24T00:59:47.602Z,100086.23
2019-03-24T01:04:51.627Z,100106.62
2019-03-24T01:09:56.689Z,100091.80
2019-03-24T01:15:00.516Z,100072.80
2019-03-24T01:20:05.300Z,100083.34
2019-03-24T01:25:09.286Z,100074.77
2019-03-24T01:30:13.421Z,100075.19
2019-03-24T01:35:17.295Z,100085.11
2019-03-24T01:40:21.111Z,100100.75
2019-03-24T01:45:24.986Z,100097.75
2019-03-24T01:50:28.936Z,100094.31
2019-03-24T01:55:32.828Z,100103.20
2019-03-24T02:00:36.809Z,100096.14
2019-03-24T02:05:40.626Z,100098.73
2019-03-24T02:10:44.553Z,100093.03
2019-03-24T02:15:48.631Z,100099.91
2019-03-24T02:20:52.466Z,100123.66
2019-03-24T02:25:56.343Z,100129.63
2019-03-24T02:31:00.183Z,100133.84
2019-03-24T02:36:04.078Z,100143.72
2019-03-24T02:41:07.826Z,100145.75
2019-03-24T02:46:23.651Z,100160.26
2019-03-24T02:51:17.303Z,100169.70
2019-03-24T02:56:21.146Z,100177.22
2019-03-24T03:01:24.990Z,100169.63
2019-03-24T03:06:28.853Z,100180.92
2019-03-24T03:11:32.608Z,100181.52
2019-03-24T03:16:38.670Z,100181.73
2019-03-24T03:21:42.341Z,100184.44
2019-03-24T03:26:46.302Z,100198.16
2019-03-24T03:31:50.198Z,100203.05
2019-03-24T03:36:54.012Z,100218.52
2019-03-24T03:41:57.880Z,100214.84
2019-03-24T03:47:01.717Z,100221.70
2019-03-24T03:52:05.634Z,100229.93
2019-03-24T03:57:09.448Z,100233.59
2019-03-24T04:02:13.271Z,100247.92
2019-03-24T04:07:17.145Z,100246.25
2019-03-24T04:12:20.980Z,100252.34
2019-03-24T04:17:24.838Z,100247.88
2019-03-24T04:22:28.687Z,100240.19
2019-03-24T04:27:32.445Z,100247.05
2019-03-24T04:32:36.236Z,100247.27
2019-03-24T04:37:40.059Z,100253.64
2019-03-24T04:42:43.811Z,100255.97
2019-03-24T04:47:47.609Z,100260.47
2019-03-24T04:52:51.460Z,100278.16
2019-03-24T04:57:55.262Z,100289.45
2019-03-24T05:02:59.130Z,100294.03
2019-03-24T05:08:03.573Z,100284.55
2019-03-24T05:13:07.328Z,100276.48
2019-03-24T05:18:12.040Z,100279.05
2019-03-24T05:23:16.224Z,100292.81
2019-03-24T05:28:20.056Z,100295.31
2019-03-24T05:33:23.828Z,100305.30
2019-03-24T05:38:27.688Z,100302.03
2019-03-24T05:43:31.465Z,100304.68
2019-03-24T05:48:35.245Z,100315.41
2019-03-24T05:53:39.409Z,100320.07
2019-03-24T05:58:43.136Z,100318.55
2019-03-24T06:03:46.891Z,100319.05
2019-03-24T06:08:50.647Z,100314.91
2019-03-24T06:13:54.419Z,100318.92
2019-03-24T06:18:58.642Z,100310.89
2019-03-24T06:24:02.594Z,100310.34
2019-03-24T06:29:06.371Z,100317.19
2019-03-24T06:34:10.165Z,100312.86
2019-03-24T06:39:13.931Z,100329.73
2019-03-24T06:44:17.705Z,100324.19
2019-03-24T06:49:21.600Z,100326.96
2019-03-24T06:54:25.400Z,100325.65
2019-03-24T06:59:29.181Z,100322.00
2019-03-24T07:04:32.919Z,100320.67
2019-03-24T07:09:36.675Z,100317.34
2019-03-24T07:14:40.496Z,100314.78
2019-03-24T07:19:44.219Z,100322.66
2019-03-24T07:24:48.468Z,100311.88
2019-03-24T07:29:52.238Z,100322.83
2019-03-24T07:34:56.830Z,100315.02
2019-03-24T07:40:00.616Z,100313.52
2019-03-24T07:45:05.862Z,100312.95
2019-03-24T07:50:10.263Z,100313.17
2019-03-24T07:55:14.021Z,100307.60
2019-03-24T08:00:36.161Z,100306.47
2019-03-24T08:05:40.069Z,100298.89
2019-03-24T08:10:43.805Z,100300.70
2019-03-24T08:15:47.657Z,100290.12
2019-03-24T08:20:51.481Z,100291.50
2019-03-24T08:25:55.284Z,100283.28
2019-03-24T08:30:59.074Z,100277.42
2019-03-24T08:36:03.327Z,100277.61
2019-03-24T08:41:07.545Z,100283.59
2019-03-24T08:46:11.636Z,100274.27
2019-03-24T08:51:15.387Z,100261.55
2019-03-24T08:56:19.293Z,100273.59
2019-03-24T09:01:23.076Z,100259.38
2019-03-24T09:06:26.854Z,100256.09
2019-03-24T09:11:31.635Z,100252.17
2019-03-24T09:16:35.657Z,100237.85
2019-03-24T09:21:39.400Z,100240.70
2019-03-24T09:26:43.253Z,100227.10
2019-03-24T09:31:47.007Z,100228.30
2019-03-24T09:36:50.900Z,100221.97
2019-03-24T09:41:54.653Z,100225.16
2019-03-24T09:46:58.584Z,100224.46
2019-03-24T09:52:02.477Z,100226.03
2019-03-24T09:57:06.314Z,100213.75
2019-03-24T10:02:10.107Z,100201.09
2019-03-24T10:07:13.865Z,100197.16
2019-03-24T10:12:17.718Z,100187.53
2019-03-24T10:17:21.480Z,100181.84
2019-03-24T10:22:25.284Z,100171.97
2019-03-24T10:27:29.062Z,100169.72
2019-03-24T10:32:32.865Z,100166.02
2019-03-24T10:37:36.912Z,100161.06
2019-03-24T10:42:40.958Z,100149.80
2019-03-24T10:47:47.178Z,100144.82
2019-03-24T10:52:50.960Z,100136.57
2019-03-24T10:57:54.724Z,100127.55
2019-03-24T11:02:58.467Z,100123.24
2019-03-24T11:08:02.268Z,100114.94
2019-03-24T11:13:06.313Z,100109.13
2019-03-24T11:18:10.086Z,100100.45
2019-03-24T11:23:13.897Z,100080.33
2019-03-24T11:28:19.283Z,100074.66
2019-03-24T11:33:23.325Z,100065.21
2019-03-24T11:38:27.180Z,100054.74
2019-03-24T11:43:30.904Z,100055.72
2019-03-24T11:48:34.829Z,100042.86
2019-03-24T11:53:38.788Z,100040.44
2019-03-24T11:58:42.654Z,100024.40
2019-03-24T12:03:46.537Z,100014.91
2019-03-24T12:08:50.306Z,99996.98
2019-03-24T12:13:54.415Z,99993.45
2019-03-24T12:18:58.330Z,99978.65
2019-03-24T12:24:02.172Z,99961.72
2019-03-24T12:29:05.966Z,99956.42
2019-03-24T12:34:09.812Z,99946.98
2019-03-24T12:39:13.636Z,99927.97
2019-03-24T12:44:17.507Z,99923.30
2019-03-24T12:49:21.615Z,99903.59
2019-03-24T12:54:25.704Z,99885.47
2019-03-24T12:59:30.062Z,99878.64
2019-03-24T13:04:34.134Z,99868.80
2019-03-24T13:09:37.995Z,99854.80
2019-03-24T13:14:41.977Z,99846.94
2019-03-24T13:19:45.842Z,99836.36
2019-03-24T13:24:49.804Z,99830.31
2019-03-24T13:29:53.658Z,99826.73
2019-03-24T13:34:57.474Z,99816.24
2019-03-24T13:40:01.296Z,99809.38
2019-03-24T13:45:05.218Z,99793.84
2019-03-24T13:50:09.417Z,99784.40
2019-03-24T13:55:13.449Z,99772.63
2019-03-24T14:00:18.026Z,99770.77
2019-03-24T14:05:21.857Z,99763.50
2019-03-24T14:10:25.645Z,99750.19
2019-03-24T14:15:31.678Z,99743.53
2019-03-24T14:20:43.313Z,99729.06
2019-03-24T14:25:41.341Z,99735.09
2019-03-24T14:30:47.495Z,99733.12
2019-03-24T14:35:51.584Z,99717.37
2019-03-24T14:40:55.457Z,99713.64
2019-03-24T14:45:59.339Z,99704.19
2019-03-24T14:51:03.233Z,99697.32
2019-03-24T14:56:07.160Z,99690.16
2019-03-24T15:01:11.040Z,99680.47
2019-03-24T15:06:14.879Z,99670.62
2019-03-24T15:11:18.880Z,99662.20
2019-03-24T15:16:23.106Z,99671.02
2019-03-24T15:21:26.995Z,99663.25
2019-03-24T15:26:32.942Z,99664.91
2019-03-24T15:31:36.778Z,99666.83
2019-03-24T15:36:40.660Z,99659.91
2019-03-24T15:41:44.506Z,99659.38
2019-03-24T15:46:48.718Z,99663.06
2019-03-24T15:51:52.559Z,99664.55
2019-03-24T15:56:56.583Z,99657.56
2019-03-24T16:02:00.412Z,99660.80
2019-03-24T16:07:04.428Z,99657.63
2019-03-24T16:12:08.397Z,99654.97
2019-03-24T16:17:12.309Z,99654.55
2019-03-24T16:22:16.270Z,99643.03
2019-03-24T16:27:20.300Z,99633.01
2019-03-24T16:32:24.661Z,99625.30
2019-03-24T16:37:28.539Z,99621.23
2019-03-24T16:42:32.431Z,99619.83
2019-03-24T16:47:36.315Z,99612.39
2019-03-24T16:52:40.224Z,99611.45
2019-03-24T16:57:44.421Z,99603.05
2019-03-24T17:02:48.565Z,99599.27
2019-03-24T17:07:52.526Z,99583.95
2019-03-24T17:12:59.908Z,99606.44
2019-03-24T17:18:04.262Z,99619.67
2019-03-24T17:23:08.189Z,99610.39
2019-03-24T17:28:12.135Z,99596.89
2019-03-24T17:33:16.160Z,99601.38
2019-03-24T17:38:20.203Z,99593.14
2019-03-24T17:43:24.146Z,99602.27
2019-03-24T17:48:28.056Z,99589.27
2019-03-24T17:53:31.937Z,99585.63
2019-03-24T17:58:35.950Z,99590.84
2019-03-24T18:03:40.056Z,99577.34
2019-03-24T18:08:44.015Z,99586.56
2019-03-24T18:13:47.858Z,99585.77
2019-03-24T18:18:51.897Z,99587.22
2019-03-24T18:23:56.114Z,99571.20
2019-03-24T18:29:00.118Z,99565.45
2019-03-24T18:34:04.213Z,99565.41
2019-03-24T18:39:12.616Z,99563.20
2019-03-24T18:44:16.688Z,99568.90
2019-03-24T18:49:20.636Z,99554.62
2019-03-24T18:54:24.475Z,99550.35
2019-03-24T18:59:28.326Z,99550.06
2019-03-24T19:04:34.406Z,99547.05
2019-03-24T19:09:38.449Z,99556.11
2019-03-24T19:14:42.315Z,99583.26
2019-03-24T19:19:46.322Z,99577.78
2019-03-24T19:24:50.244Z,99557.56
2019-03-24T19:29:54.110Z,99548.81
2019-03-24T19:34:57.904Z,99546.98
2019-03-24T19:40:01.827Z,99545.19
2019-03-24T19:45:06.319Z,99529.27
2019-03-24T19:50:10.334Z,99528.47
2019-03-24T19:55:14.513Z,99511.09
2019-03-24T20:00:18.468Z,99507.86
2019-03-24T20:05:22.445Z,99502.64
2019-03-24T20:10:26.286Z,99507.13
2019-03-24T20:15:30.170Z,99497.45
2019-03-24T20:20:34.178Z,99493.30
2019-03-24T20:25:38.048Z,99480.00
2019-03-24T20:30:41.906Z,99476.06
2019-03-24T20:35:46.039Z,99479.95
2019-03-24T20:40:49.952Z,99475.87
2019-03-24T20:45:53.931Z,99464.41
2019-03-24T20:50:57.808Z,99459.60
2019-03-24T20:56:01.773Z,99459.89
2019-03-24T21:01:05.685Z,99459.60
2019-03-24T21:06:09.620Z,99457.84
2019-03-24T21:11:13.621Z,99456.57
2019-03-24T21:16:17.626Z,99455.06
2019-03-24T21:21:21.431Z,99467.19
2019-03-24T21:26:25.398Z,99446.84
2019-03-24T21:31:29.203Z,99461.05
2019-03-24T21:36:33.015Z,99465.69
2019-03-24T21:41:36.976Z,99470.70
2019-03-24T21:46:40.932Z,99462.05
2019-03-24T21:51:45.239Z,99472.23
2019-03-24T21:56:49.131Z,99469.56
2019-03-24T22:01:53.129Z,99457.97
2019-03-24T22:06:57.855Z,99448.75
2019-03-24T22:12:02.187Z,99450.27
2019-03-24T22:17:05.951Z,99448.45
2019-03-24T22:22:09.727Z,99440.55
2019-03-24T22:27:13.516Z,99444.25
2019-03-24T22:32:17.279Z,99436.31
2019-03-24T22:37:21.166Z,99430.03
2019-03-24T22:42:24.943Z,99421.06
2019-03-24T22:47:28.967Z,99400.66
2019-03-24T22:52:32.893Z,99389.53
2019-03-24T22:57:36.659Z,99397.02
2019-03-24T23:02:40.566Z,99387.97
2019-03-24T23:07:44.349Z,99393.67
2019-03-24T23:12:48.514Z,99386.98
2019-03-24T23:17:52.323Z,99386.52
2019-03-24T23:22:56.111Z,99383.24
2019-03-24T23:28:00.345Z,99386.89
2019-03-24T23:33:04.628Z,99380.37
2019-03-24T23:38:08.411Z,99378.63
2019-03-24T23:43:12.240Z,99386.35
2019-03-24T23:48:16.277Z,99357.05
2019-03-24T23:53:20.130Z,99354.11
2019-03-24T23:58:23.856Z,99347.26
